Time;durP1;ratioP1;P1;durP2;ratioP2;P2;SDS_P1;SDS_P2;PMS_P1;PMS_P2;Temp;Humidity;BMP_temperature;BMP_pressure;BME280_temperature;BME280_humidity;BME280_pressure;Samples;Min_cycle;Max_cycle;Signal;HPM_P1;HPM_P2
2023/02/28 00:00:41;;;;;;;7.87;7.07;;;;;20.00;101865.00;;;;2070926;28;20215;-76
2023/02/28 00:01:41;;;;;;;8.73;7.80;;;;;20.00;101870.00;;;;2070757;28;20218;-76
2023/02/28 00:02:42;;;;;;;8.10;7.30;;;;;20.00;101855.00;;;;2071389;28;20694;-77
2023/02/28 00:03:42;;;;;;;7.80;7.03;;;;;20.00;101862.00;;;;2072471;28;20276;-76
2023/02/28 00:04:43;;;;;;;8.43;7.40;;;;;20.00;101870.00;;;;2072496;28;20218;-76
2023/02/28 00:05:43;;;;;;;8.73;7.73;;;;;20.00;101869.00;;;;2070635;28;20348;-77
2023/02/28 00:06:44;;;;;;;8.73;7.60;;;;;19.90;101857.00;;;;2071707;28;20218;-76
2023/02/28 00:07:44;;;;;;;8.67;7.77;;;;;20.00;101861.00;;;;2072359;28;20214;-75
2023/02/28 00:08:45;;;;;;;9.77;7.77;;;;;20.00;101826.00;;;;2072356;28;20353;-76
2023/02/28 00:09:45;;;;;;;7.70;6.90;;;;;19.90;101860.00;;;;2072070;28;20210;-76
2023/02/28 00:10:45;;;;;;;8.67;7.03;;;;;19.90;101819.00;;;;2072473;28;20564;-76
2023/02/28 00:11:46;;;;;;;9.93;6.90;;;;;19.90;101858.00;;;;2072237;28;20640;-76
2023/02/28 00:12:47;;;;;;;7.43;6.73;;;;;19.90;101861.00;;;;2072348;28;20240;-76
2023/02/28 00:13:48;;;;;;;8.93;6.68;;;;;19.90;101857.00;;;;2071693;28;20257;-76
2023/02/28 00:14:48;;;;;;;6.97;5.80;;;;;19.90;101862.00;;;;2064228;28;20214;-76
2023/02/28 00:16:18;;;;;;;7.00;6.30;;;;;19.90;101870.00;;;;2064325;28;20223;-76
2023/02/28 00:17:20;;;;;;;6.70;6.00;;;;;19.90;101855.00;;;;2063754;28;20226;-76
2023/02/28 00:18:21;;;;;;;7.85;6.40;;;;;19.90;101865.00;;;;2063676;28;20631;-76
2023/02/28 00:19:21;;;;;;;6.60;5.80;;;;;19.90;101871.00;;;;2064288;28;20234;-76
2023/02/28 00:20:21;;;;;;;8.43;6.20;;;;;19.90;101873.00;;;;2064280;28;20265;-76
2023/02/28 00:21:22;;;;;;;8.40;6.03;;;;;19.80;101861.00;;;;2064108;28;20218;-76
2023/02/28 00:22:22;;;;;;;7.43;5.73;;;;;19.90;101861.00;;;;2064193;28;20206;-75
2023/02/28 00:23:22;;;;;;;6.27;5.33;;;;;19.80;101862.00;;;;2063373;28;20286;-76
2023/02/28 00:24:23;;;;;;;7.03;6.07;;;;;19.80;101862.00;;;;2047474;28;20216;-75
2023/02/28 00:25:24;;;;;;;6.57;5.50;;;;;19.90;101860.00;;;;2055537;28;20723;-77
2023/02/28 00:26:24;;;;;;;7.72;6.18;;;;;19.80;101870.00;;;;2064108;28;20211;-76
2023/02/28 00:27:25;;;;;;;6.00;5.40;;;;;19.80;101860.00;;;;2064044;28;20210;-76
2023/02/28 00:28:25;;;;;;;7.37;5.87;;;;;19.80;101862.00;;;;2063885;28;20292;-76
2023/02/28 00:29:25;;;;;;;6.17;5.47;;;;;19.80;101861.00;;;;2064035;28;20215;-76
2023/02/28 00:30:26;;;;;;;6.03;5.30;;;;;19.80;101870.00;;;;2064044;28;20203;-76
2023/02/28 00:31:26;;;;;;;6.37;5.40;;;;;19.80;101862.00;;;;2064177;28;20214;-76
2023/02/28 00:32:29;;;;;;;6.73;5.10;;;;;19.80;101817.00;;;;2056171;28;20227;-78
2023/02/28 00:33:30;;;;;;;6.35;5.75;;;;;19.80;101869.00;;;;2071280;28;20210;-75
2023/02/28 00:34:30;;;;;;;5.20;4.63;;;;;19.80;101876.00;;;;2069704;28;20212;-77
2023/02/28 00:35:30;;;;;;;6.97;5.40;;;;;19.80;101865.00;;;;2064145;28;20207;-76
2023/02/28 00:36:31;;;;;;;6.07;5.43;;;;;19.80;101861.00;;;;2064163;28;20214;-77
2023/02/28 00:37:31;;;;;;;5.73;4.80;;;;;19.80;101873.00;;;;2064193;28;20241;-76
2023/02/28 00:38:31;;;;;;;5.20;4.70;;;;;19.80;101875.00;;;;2062876;28;20688;-75
2023/02/28 00:39:33;;;;;;;5.43;4.93;;;;;19.80;101872.00;;;;2071442;28;20293;-75
2023/02/28 00:40:33;;;;;;;5.85;5.20;;;;;19.80;101860.00;;;;2072324;28;20242;-76
2023/02/28 00:41:34;;;;;;;7.10;5.10;;;;;19.70;101862.00;;;;2070536;28;20675;-75
2023/02/28 00:42:34;;;;;;;6.67;4.93;;;;;19.70;101871.00;;;;2071877;28;20249;-75
2023/02/28 00:43:36;;;;;;;5.63;4.87;;;;;19.70;101873.00;;;;2071844;28;20271;-76
2023/02/28 00:44:36;;;;;;;5.50;4.72;;;;;19.70;101865.00;;;;2072208;28;20222;-75
2023/02/28 00:45:36;;;;;;;5.63;4.37;;;;;19.70;101860.00;;;;2072146;28;20221;-76
2023/02/28 00:46:37;;;;;;;6.30;4.73;;;;;19.70;101869.00;;;;2072105;28;20218;-75
2023/02/28 00:47:37;;;;;;;5.90;4.70;;;;;19.70;101865.00;;;;2072080;28;20260;-75
2023/02/28 00:48:37;;;;;;;4.70;4.30;;;;;19.70;101845.00;;;;2071936;28;20269;-76
2023/02/28 00:49:38;;;;;;;5.23;4.37;;;;;19.70;101857.00;;;;2072015;28;20288;-75
2023/02/28 00:50:38;;;;;;;4.53;4.03;;;;;19.70;101842.00;;;;2072232;28;20694;-75
2023/02/28 00:51:38;;;;;;;5.77;4.60;;;;;19.70;101869.00;;;;2072156;28;20651;-75
2023/02/28 00:52:38;;;;;;;7.47;5.70;;;;;19.70;101864.00;;;;2063204;28;20651;-75
2023/02/28 00:53:39;;;;;;;5.70;4.50;;;;;19.70;101870.00;;;;2063362;28;20223;-75
2023/02/28 00:54:39;;;;;;;4.47;3.90;;;;;19.70;101877.00;;;;2071821;28;20237;-75
2023/02/28 00:55:39;;;;;;;4.90;4.17;;;;;19.70;101873.00;;;;2072111;28;20240;-75
2023/02/28 00:56:40;;;;;;;5.67;4.30;;;;;19.70;101877.00;;;;2072002;28;20218;-75
2023/02/28 00:57:40;;;;;;;4.83;4.17;;;;;19.70;101883.00;;;;2071957;28;20214;-75
2023/02/28 00:58:41;;;;;;;5.37;4.17;;;;;19.70;101878.00;;;;2071726;28;20218;-75
2023/02/28 00:59:41;;;;;;;8.23;3.93;;;;;19.70;101880.00;;;;2071979;28;20218;-75
2023/02/28 01:00:41;;;;;;;5.23;4.10;;;;;19.70;101878.00;;;;2070733;28;20222;-75
2023/02/28 01:01:42;;;;;;;5.43;4.10;;;;;19.60;101883.00;;;;2071792;28;20225;-76
2023/02/28 01:02:43;;;;;;;6.80;5.03;;;;;19.60;101881.00;;;;2071915;28;20230;-76
2023/02/28 01:03:43;;;;;;;4.60;4.17;;;;;19.60;101881.00;;;;2071885;28;20462;-76
2023/02/28 01:04:43;;;;;;;6.00;4.00;;;;;19.60;101883.00;;;;2072056;28;20214;-76
2023/02/28 01:05:44;;;;;;;5.27;4.63;;;;;19.70;101881.00;;;;2071108;28;21081;-76
2023/02/28 01:06:44;;;;;;;4.97;4.47;;;;;19.60;101851.00;;;;2071194;28;20913;-76
2023/02/28 01:07:44;;;;;;;4.73;4.03;;;;;19.60;101888.00;;;;2071350;28;20320;-76
2023/02/28 01:08:45;;;;;;;5.00;4.20;;;;;19.60;101882.00;;;;2070888;28;20222;-76
2023/02/28 01:09:45;;;;;;;4.67;4.23;;;;;19.60;101884.00;;;;2071207;28;20724;-76
2023/02/28 01:10:45;;;;;;;5.03;3.67;;;;;19.60;101881.00;;;;2071854;28;20222;-76
2023/02/28 01:11:46;;;;;;;6.00;4.40;;;;;19.60;101888.00;;;;2071946;28;20272;-75
2023/02/28 01:12:46;;;;;;;5.90;4.37;;;;;19.60;101880.00;;;;2071942;28;20667;-76
2023/02/28 01:13:46;;;;;;;4.73;4.00;;;;;19.60;101883.00;;;;2071232;28;20559;-76
2023/02/28 01:14:47;;;;;;;5.60;4.30;;;;;19.60;101876.00;;;;2071262;28;20238;-75
2023/02/28 01:15:52;;;;;;;7.60;4.73;;;;;19.60;101879.00;;;;2071900;28;20229;-76
2023/02/28 01:16:52;;;;;;;4.75;3.80;;;;;19.60;101878.00;;;;2070788;28;20264;-76
2023/02/28 01:17:52;;;;;;;4.10;3.40;;;;;19.60;101879.00;;;;2071093;28;20218;-76
2023/02/28 01:18:53;;;;;;;4.30;3.77;;;;;19.60;101879.00;;;;2071822;28;20214;-76
2023/02/28 01:19:55;;;;;;;5.83;4.30;;;;;19.60;101878.00;;;;2071781;28;20233;-76
2023/02/28 01:20:55;;;;;;;4.60;3.80;;;;;19.60;101882.00;;;;2071142;28;20397;-76
2023/02/28 01:21:55;;;;;;;5.30;4.23;;;;;19.60;101879.00;;;;2071312;28;20237;-77
2023/02/28 01:22:56;;;;;;;4.70;3.67;;;;;19.60;101875.00;;;;2071938;28;20218;-76
2023/02/28 01:23:57;;;;;;;5.37;4.43;;;;;19.60;101890.00;;;;2071830;28;20242;-76
2023/02/28 01:24:57;;;;;;;4.00;3.28;;;;;19.60;101887.00;;;;2071581;28;20298;-76
2023/02/28 01:26:06;;;;;;;4.67;3.90;;;;;19.40;101878.00;;;;2071348;28;21048;-76
2023/02/28 01:27:06;;;;;;;5.82;4.05;;;;;19.50;101882.00;;;;2071057;28;20222;-76
2023/02/28 01:28:07;;;;;;;5.10;3.77;;;;;19.50;101876.00;;;;2071542;28;20235;-77
2023/02/28 01:29:07;;;;;;;5.23;3.93;;;;;19.50;101884.00;;;;2071715;28;20217;-77
2023/02/28 01:30:08;;;;;;;5.73;3.60;;;;;19.50;101871.00;;;;2071963;28;20222;-77
2023/02/28 01:31:09;;;;;;;6.00;3.88;;;;;19.50;101883.00;;;;2072114;28;20237;-77
2023/02/28 01:32:09;;;;;;;5.30;3.50;;;;;19.50;101843.00;;;;2071781;28;20607;-76
2023/02/28 01:33:09;;;;;;;4.40;3.70;;;;;19.50;101884.00;;;;2071848;28;20589;-76
2023/02/28 01:34:10;;;;;;;4.20;3.43;;;;;19.50;101880.00;;;;2071918;28;20593;-77
2023/02/28 01:35:10;;;;;;;5.27;3.90;;;;;19.50;101877.00;;;;2071330;28;20651;-76
2023/02/28 01:36:12;;;;;;;5.50;4.00;;;;;19.50;101884.00;;;;2072001;28;20214;-76
2023/02/28 01:37:12;;;;;;;5.13;3.55;;;;;19.50;101870.00;;;;2071801;28;20218;-77
2023/02/28 01:38:13;;;;;;;6.27;4.13;;;;;19.50;101874.00;;;;2071286;28;20352;-76
2023/02/28 01:39:13;;;;;;;4.03;3.17;;;;;19.50;101885.00;;;;2065965;28;20222;-77
2023/02/28 01:40:14;;;;;;;4.27;3.70;;;;;19.40;101863.00;;;;2062858;28;20231;-77
2023/02/28 01:41:18;;;;;;;5.00;3.67;;;;;19.50;101878.00;;;;2054945;28;20680;-76
2023/02/28 01:42:19;;;;;;;5.07;4.07;;;;;19.40;101873.00;;;;2062793;28;20276;-76
2023/02/28 01:43:24;;;;;;;6.03;3.93;;;;;19.40;101872.00;;;;2063632;28;20215;-76
2023/02/28 01:44:58;;;;;;;8.95;3.35;;;;;19.50;101876.00;;;;2063131;28;20203;-76
2023/02/28 01:45:59;;;;;;;4.15;3.63;;;;;19.40;101874.00;;;;2063186;28;20264;-76
2023/02/28 01:46:59;;;;;;;5.43;4.10;;;;;19.50;101876.00;;;;2063972;28;20310;-76
2023/02/28 01:48:05;;;;;;;5.77;4.10;;;;;19.40;101816.00;;;;2063933;28;20214;-75
2023/02/28 01:49:09;;;;;;;6.38;3.17;;;;;19.40;101870.00;;;;2063412;28;20215;-76
2023/02/28 01:50:14;;;;;;;4.63;3.30;;;;;19.40;101874.00;;;;2063243;28;20211;-76
2023/02/28 01:51:54;;;;;;;4.78;3.55;;;;;19.40;101862.00;;;;2063343;28;20598;-76
2023/02/28 01:52:55;;;;;;;4.65;3.20;;;;;19.40;101877.00;;;;2059939;28;20214;-76
2023/02/28 01:53:59;;;;;;;4.93;3.40;;;;;19.40;101736.00;;;;2062636;28;20761;-76
2023/02/28 01:55:00;;;;;;;4.90;3.33;;;;;19.40;101834.00;;;;2062946;28;20219;-76
2023/02/28 01:56:01;;;;;;;3.28;2.95;;;;;19.40;101845.00;;;;2062875;28;20579;-76
2023/02/28 01:57:07;;;;;;;3.90;3.20;;;;;19.40;101848.00;;;;2046963;28;20223;-76
2023/02/28 01:58:08;;;;;;;4.22;3.50;;;;;19.40;101862.00;;;;2055435;28;20216;-75
2023/02/28 01:59:09;;;;;;;4.40;3.53;;;;;19.40;101854.00;;;;2061972;28;20199;-76
2023/02/28 02:00:14;;;;;;;3.90;3.07;;;;;19.40;101855.00;;;;2054888;28;20208;-75
2023/02/28 02:01:21;;;;;;;4.18;3.50;;;;;19.40;101860.00;;;;2048266;28;20300;-75
2023/02/28 02:02:21;;;;;;;4.10;3.05;;;;;19.40;101840.00;;;;2063073;28;20907;-75
2023/02/28 02:03:22;;;;;;;3.73;3.17;;;;;19.40;101855.00;;;;2063144;28;20306;-76
2023/02/28 02:04:23;;;;;;;3.50;3.13;;;;;19.40;101858.00;;;;2063233;28;20293;-75
2023/02/28 02:05:25;;;;;;;3.60;2.95;;;;;19.40;101846.00;;;;2055178;28;20627;-75
2023/02/28 02:06:29;;;;;;;4.07;3.13;;;;;19.40;101862.00;;;;2055031;28;20294;-75
2023/02/28 02:07:31;;;;;;;4.65;3.55;;;;;19.40;101838.00;;;;2062515;28;20207;-75
2023/02/28 02:08:31;;;;;;;4.18;2.85;;;;;19.30;101779.00;;;;2062995;28;20211;-75
2023/02/28 02:09:32;;;;;;;4.63;3.40;;;;;19.30;101848.00;;;;2062814;28;20223;-75
2023/02/28 02:10:47;;;;;;;3.70;2.83;;;;;19.30;101842.00;;;;2062723;28;20235;-76
2023/02/28 02:11:48;;;;;;;3.60;2.88;;;;;19.40;101850.00;;;;2063939;28;20302;-76
2023/02/28 02:12:53;;;;;;;3.27;2.97;;;;;19.30;101845.00;;;;2063877;28;20223;-75
2023/02/28 02:14:25;;;;;;;3.50;2.50;;;;;19.30;101840.00;;;;2062976;28;20219;-75
2023/02/28 02:15:33;;;;;;;3.00;2.70;;;;;19.30;101845.00;;;;2062587;28;20222;-75
2023/02/28 02:16:49;;;;;;;4.20;3.20;;;;;19.30;101822.00;;;;2062902;28;20302;-76
2023/02/28 02:17:51;;;;;;;6.25;2.63;;;;;19.30;101852.00;;;;2062890;28;20393;-75
2023/02/28 02:19:14;;;;;;;3.58;2.88;;;;;19.30;101842.00;;;;2060827;28;20656;-76
2023/02/28 02:20:47;;;;;;;3.42;3.13;;;;;19.30;101831.00;;;;2052455;28;20222;-76
2023/02/28 02:22:22;;;;;;;3.10;2.70;;;;;19.30;101834.00;;;;2051533;28;20215;-76
2023/02/28 02:23:50;;;;;;;3.42;3.00;;;;;19.30;101837.00;;;;2062677;28;20227;-76
2023/02/28 02:25:16;;;;;;;3.42;3.00;;;;;19.30;101788.00;;;;2062656;28;20691;-76
2023/02/28 02:26:40;;;;;;;3.13;2.75;;;;;19.30;101836.00;;;;2062120;28;20333;-77
2023/02/28 02:28:09;;;;;;;3.40;2.58;;;;;19.30;101824.00;;;;2062347;28;21133;-76
2023/02/28 02:30:01;;;;;;;2.92;2.45;;;;;19.30;101833.00;;;;2062409;28;20218;-77
2023/02/28 02:31:25;;;;;;;5.65;3.15;;;;;19.30;101830.00;;;;2044040;28;20231;-77
2023/02/28 02:32:59;;;;;;;3.60;2.85;;;;;19.30;101834.00;;;;2061639;28;20222;-77
2023/02/28 02:34:26;;;;;;;2.60;2.40;;;;;19.30;101839.00;;;;2062584;28;20226;-77
2023/02/28 02:35:32;;;;;;;2.85;2.10;;;;;19.30;101837.00;;;;2062017;28;20215;-76
2023/02/28 02:36:35;;;;;;;3.10;2.53;;;;;19.30;101840.00;;;;2061015;28;20233;-77
2023/02/28 02:37:40;;;;;;;3.15;2.78;;;;;19.30;101834.00;;;;2062353;28;20852;-76
2023/02/28 02:38:50;;;;;;;2.70;2.40;;;;;19.20;101840.00;;;;2063265;28;20250;-77
2023/02/28 02:39:52;;;;;;;2.95;2.42;;;;;19.20;101786.00;;;;2063605;28;20954;-77
2023/02/28 02:41:13;;;;;;;3.00;2.70;;;;;19.30;101837.00;;;;2070582;28;20305;-76
2023/02/28 02:42:16;;;;;;;2.95;2.42;;;;;19.30;101830.00;;;;2070347;28;20793;-76
2023/02/28 02:43:20;;;;;;;2.53;2.33;;;;;19.20;101840.00;;;;2070414;28;20217;-75
2023/02/28 02:44:36;;;;;;;6.32;3.00;;;;;19.30;101845.00;;;;2061548;28;20958;-77
2023/02/28 02:45:42;;;;;;;4.65;2.05;;;;;19.30;101826.00;;;;2056134;28;20265;-76
2023/02/28 02:46:43;;;;;;;3.13;2.50;;;;;19.20;101777.00;;;;2062403;28;20349;-76
2023/02/28 02:47:44;;;;;;;3.13;2.15;;;;;19.20;101842.00;;;;2070362;28;20214;-77
2023/02/28 02:48:44;;;;;;;3.60;2.43;;;;;19.20;101813.00;;;;2070032;28;20233;-77
2023/02/28 02:49:50;;;;;;;3.40;2.37;;;;;19.20;101843.00;;;;2062207;28;20264;-77
2023/02/28 02:50:58;;;;;;;4.35;2.38;;;;;19.20;101837.00;;;;2063087;28;20219;-76
2023/02/28 02:52:04;;;;;;;2.83;2.40;;;;;19.20;101777.00;;;;2046589;28;20598;-76
2023/02/28 02:53:05;;;;;;;2.65;2.22;;;;;19.20;101802.00;;;;2041652;28;20759;-76
2023/02/28 02:54:08;;;;;;;2.67;2.27;;;;;19.30;101840.00;;;;2048239;28;20258;-76
2023/02/28 02:55:10;;;;;;;3.72;2.65;;;;;19.20;101833.00;;;;2054778;28;20466;-77
2023/02/28 02:56:11;;;;;;;2.55;2.20;;;;;19.20;101842.00;;;;2062598;28;20295;-76
2023/02/28 02:57:14;;;;;;;2.90;2.50;;;;;19.20;101842.00;;;;2061938;28;20607;-76
2023/02/28 02:58:16;;;;;;;3.10;2.25;;;;;19.20;101838.00;;;;2070078;28;20226;-77
2023/02/28 02:59:20;;;;;;;3.78;2.60;;;;;19.20;101782.00;;;;2062249;28;20222;-76
2023/02/28 03:00:23;;;;;;;2.50;2.20;;;;;19.20;101809.00;;;;2062562;28;20214;-77
2023/02/28 03:01:27;;;;;;;3.17;2.08;;;;;19.20;101844.00;;;;2062788;28;20215;-77
2023/02/28 03:02:28;;;;;;;3.50;2.60;;;;;19.10;101802.00;;;;2061244;28;20218;-78
2023/02/28 03:03:28;;;;;;;3.20;2.00;;;;;19.10;101757.00;;;;2047299;28;20765;-75
2023/02/28 03:04:32;;;;;;;3.23;2.43;;;;;19.20;101823.00;;;;2054284;28;20695;-79
2023/02/28 03:05:35;;;;;;;2.15;1.80;;;;;19.20;101848.00;;;;2054640;28;20267;-78
2023/02/28 03:06:36;;;;;;;3.55;2.22;;;;;19.20;101845.00;;;;2062469;28;20305;-78
2023/02/28 03:07:36;;;;;;;3.23;2.67;;;;;19.20;101773.00;;;;2062421;28;20230;-85
2023/02/28 03:08:37;;;;;;;3.00;1.97;;;;;19.30;101814.00;;;;2070096;28;20249;-81
2023/02/28 03:09:38;;;;;;;2.25;1.85;;;;;19.20;101835.00;;;;2062002;28;20587;-83
2023/02/28 03:10:40;;;;;;;2.27;2.07;;;;;19.20;101784.00;;;;2062378;28;20215;-83
2023/02/28 03:11:41;;;;;;;2.58;2.03;;;;;19.20;101841.00;;;;2070441;28;21014;-80
2023/02/28 03:12:48;;;;;;;3.53;2.47;;;;;19.20;101845.00;;;;2069953;28;20343;-80
2023/02/28 03:14:01;;;;;;;2.45;1.90;;;;;19.20;101845.00;;;;2062291;28;20269;-81
2023/02/28 03:15:12;;;;;;;2.33;2.13;;;;;19.20;101800.00;;;;2064163;28;20397;-81
2023/02/28 03:16:31;;;;;;;3.65;2.20;;;;;19.20;101838.00;;;;2069469;28;20233;-82
2023/02/28 03:17:50;;;;;;;3.08;2.05;;;;;19.20;101835.00;;;;2070010;28;20214;-82
2023/02/28 03:19:03;;;;;;;4.05;2.45;;;;;19.20;101834.00;;;;2069303;28;20221;-76
2023/02/28 03:20:32;;;;;;;4.57;2.70;;;;;19.20;101807.00;;;;2070301;28;20308;-76
2023/02/28 03:21:40;;;;;;;3.75;2.55;;;;;19.30;101832.00;;;;2069987;28;20642;-76
2023/02/28 03:23:07;;;;;;;3.15;2.40;;;;;19.20;101833.00;;;;2070057;28;20224;-77
2023/02/28 03:24:10;;;;;;;3.80;1.83;;;;;19.20;101833.00;;;;2055183;28;20659;-75
2023/02/28 03:25:19;;;;;;;3.38;2.35;;;;;19.20;101828.00;;;;2055005;28;20222;-77
2023/02/28 03:26:21;;;;;;;4.28;2.28;;;;;19.20;101832.00;;;;2062294;28;20307;-76
2023/02/28 03:27:30;;;;;;;2.45;2.25;;;;;19.20;101829.00;;;;2069430;28;20233;-76
2023/02/28 03:28:39;;;;;;;2.63;1.92;;;;;19.10;101829.00;;;;2069777;28;20218;-76
2023/02/28 03:29:43;;;;;;;3.30;1.95;;;;;19.10;101806.00;;;;2069765;28;20237;-76
2023/02/28 03:30:54;;;;;;;3.33;2.05;;;;;19.10;101840.00;;;;2068442;28;20218;-76
2023/02/28 03:32:03;;;;;;;3.72;2.40;;;;;19.20;101826.00;;;;2067930;28;20301;-76
2023/02/28 03:33:05;;;;;;;2.70;2.10;;;;;19.10;101833.00;;;;2055379;28;20362;-73
2023/02/28 03:34:10;;;;;;;4.50;2.05;;;;;19.10;101832.00;;;;2060910;28;20273;-74
2023/02/28 03:35:25;;;;;;;2.90;2.28;;;;;19.10;101828.00;;;;2070676;28;20355;-75
2023/02/28 03:36:28;;;;;;;3.45;1.90;;;;;19.10;101828.00;;;;2069757;28;20708;-71
2023/02/28 03:37:29;;;;;;;3.00;2.00;;;;;19.10;101837.00;;;;2061710;28;20211;-74
2023/02/28 03:38:42;;;;;;;2.10;1.75;;;;;19.10;101789.00;;;;2064843;28;20748;-74
2023/02/28 03:40:12;;;;;;;2.33;1.75;;;;;19.10;101837.00;;;;2056615;28;20322;-74
2023/02/28 03:41:15;;;;;;;2.83;1.85;;;;;19.10;101783.00;;;;2060361;28;20211;-77
2023/02/28 03:42:20;;;;;;;2.83;1.95;;;;;19.10;101817.00;;;;2063771;28;20218;-76
2023/02/28 03:43:27;;;;;;;2.35;2.08;;;;;19.10;101701.00;;;;2063399;28;20211;-76
2023/02/28 03:44:32;;;;;;;2.38;1.83;;;;;19.10;101760.00;;;;2056654;28;20257;-76
2023/02/28 03:45:33;;;;;;;2.67;2.10;;;;;19.10;101832.00;;;;2056281;28;21058;-76
2023/02/28 03:46:36;;;;;;;3.05;1.70;;;;;19.10;101841.00;;;;2063489;28;20269;-76
2023/02/28 03:47:43;;;;;;;2.83;2.13;;;;;19.10;101834.00;;;;2063439;28;20218;-76
2023/02/28 03:48:45;;;;;;;3.78;2.85;;;;;19.00;101843.00;;;;2059157;28;20252;-75
2023/02/28 03:50:19;;;;;;;3.30;2.97;;;;;19.00;101843.00;;;;2056584;28;20227;-75
2023/02/28 03:51:20;;;;;;;5.93;5.00;;;;;19.00;101836.00;;;;2059445;28;20577;-76
2023/02/28 03:52:21;;;;;;;5.47;4.87;;;;;19.00;101791.00;;;;2059331;28;20246;-75
2023/02/28 03:53:32;;;;;;;8.40;6.15;;;;;19.00;101804.00;;;;2055805;28;21248;-75
2023/02/28 03:54:36;;;;;;;6.65;5.43;;;;;19.00;101855.00;;;;2064754;28;20262;-75
2023/02/28 03:55:39;;;;;;;8.25;7.00;;;;;19.00;101786.00;;;;2070806;28;20229;-76
2023/02/28 03:56:46;;;;;;;11.20;8.60;;;;;19.00;101799.00;;;;2063506;28;20219;-75
2023/02/28 03:58:06;;;;;;;11.32;8.75;;;;;19.00;101828.00;;;;2063196;28;20303;-75
2023/02/28 03:59:13;;;;;;;13.55;9.15;;;;;19.00;101850.00;;;;2062886;28;20219;-75
2023/02/28 04:00:15;;;;;;;12.82;8.75;;;;;19.00;101840.00;;;;2063015;28;20272;-75
2023/02/28 04:01:44;;;;;;;12.30;9.52;;;;;19.00;101838.00;;;;2063121;28;20226;-76
2023/02/28 04:02:44;;;;;;;15.77;10.20;;;;;19.00;101811.00;;;;2063507;28;20218;-76
2023/02/28 04:03:44;;;;;;;17.37;11.50;;;;;19.00;101818.00;;;;2063596;28;20250;-76
2023/02/28 04:04:48;;;;;;;16.63;12.10;;;;;19.00;101788.00;;;;2061033;28;20230;-75
2023/02/28 04:05:53;;;;;;;17.48;11.02;;;;;19.00;101848.00;;;;2071316;28;20222;-76
2023/02/28 04:06:53;;;;;;;20.17;13.50;;;;;19.00;101845.00;;;;2056017;28;20282;-75
2023/02/28 04:07:54;;;;;;;17.57;11.97;;;;;18.90;101782.00;;;;2046550;28;20278;-76
2023/02/28 04:08:54;;;;;;;19.37;12.80;;;;;19.00;101846.00;;;;2063218;28;20229;-75
2023/02/28 04:09:54;;;;;;;20.43;11.90;;;;;19.00;101615.00;;;;2072188;28;20214;-76
2023/02/28 04:10:59;;;;;;;17.47;12.40;;;;;18.90;101802.00;;;;2071754;28;20969;-75
2023/02/28 04:11:59;;;;;;;18.02;12.45;;;;;18.90;101837.00;;;;2071536;28;20206;-75
2023/02/28 04:12:59;;;;;;;20.70;12.70;;;;;18.90;101765.00;;;;2071476;28;20719;-75
2023/02/28 04:14:00;;;;;;;19.20;11.90;;;;;18.90;101845.00;;;;2072184;28;20697;-75
2023/02/28 04:15:00;;;;;;;18.90;11.70;;;;;19.00;101735.00;;;;2072075;28;20217;-76
2023/02/28 04:16:00;;;;;;;17.77;12.00;;;;;18.90;101843.00;;;;2071435;28;20456;-75
2023/02/28 04:17:01;;;;;;;19.40;12.00;;;;;19.00;101812.00;;;;2063335;28;20238;-76
2023/02/28 04:18:01;;;;;;;22.90;12.87;;;;;18.90;101864.00;;;;2071189;28;20812;-77
2023/02/28 04:19:05;;;;;;;20.70;11.80;;;;;18.90;101720.00;;;;2072038;28;21005;-75
2023/02/28 04:20:09;;;;;;;17.98;11.70;;;;;18.90;101843.00;;;;2071183;28;20226;-76
2023/02/28 04:21:10;;;;;;;17.90;11.60;;;;;18.90;101839.00;;;;2071228;28;20214;-75
2023/02/28 04:22:10;;;;;;;20.30;11.70;;;;;18.90;101850.00;;;;2064027;28;20297;-75
2023/02/28 04:23:10;;;;;;;16.87;11.40;;;;;18.90;101847.00;;;;2063978;28;20263;-76
2023/02/28 04:24:19;;;;;;;16.87;11.90;;;;;18.90;101764.00;;;;2064233;28;20214;-76
2023/02/28 04:25:20;;;;;;;17.77;11.43;;;;;18.90;101791.00;;;;2044902;28;20222;-77
2023/02/28 04:26:20;;;;;;;17.10;10.40;;;;;18.90;101846.00;;;;2055457;28;20303;-76
2023/02/28 04:27:21;;;;;;;19.20;10.83;;;;;18.90;101848.00;;;;2064122;28;20226;-76
2023/02/28 04:28:21;;;;;;;14.40;10.60;;;;;18.90;101847.00;;;;2063519;28;20227;-76
2023/02/28 04:29:23;;;;;;;14.57;10.20;;;;;18.90;101851.00;;;;2064102;28;20485;-76
2023/02/28 04:30:23;;;;;;;15.85;11.00;;;;;18.90;101852.00;;;;2064115;28;20226;-77
2023/02/28 04:31:23;;;;;;;15.60;10.60;;;;;18.90;101842.00;;;;2063872;28;20210;-77
2023/02/28 04:32:24;;;;;;;15.33;9.50;;;;;18.80;101854.00;;;;2064025;28;20222;-76
2023/02/28 04:33:24;;;;;;;16.53;9.73;;;;;18.80;101819.00;;;;2064040;28;20229;-77
2023/02/28 04:34:25;;;;;;;14.87;9.30;;;;;18.80;101722.00;;;;2063260;28;20253;-76
2023/02/28 04:35:26;;;;;;;12.18;9.02;;;;;18.80;101864.00;;;;2055173;28;20219;-76
2023/02/28 04:36:26;;;;;;;13.07;8.63;;;;;18.80;101856.00;;;;2063490;28;20604;-76
2023/02/28 04:37:28;;;;;;;13.20;8.90;;;;;18.80;101851.00;;;;2063389;28;20238;-76
2023/02/28 04:38:38;;;;;;;12.50;8.10;;;;;18.80;101815.00;;;;2062280;28;20215;-75
2023/02/28 04:39:38;;;;;;;13.60;8.75;;;;;18.80;101845.00;;;;2063724;28;20706;-76
2023/02/28 04:40:38;;;;;;;14.47;9.73;;;;;18.80;101850.00;;;;2062671;28;20252;-75
2023/02/28 04:41:39;;;;;;;10.10;7.20;;;;;18.50;101823.00;;;;2063358;28;20214;-76
2023/02/28 04:42:39;;;;;;;14.40;9.30;;;;;18.80;101850.00;;;;2063956;28;20233;-76
2023/02/28 04:43:39;;;;;;;11.70;8.70;;;;;18.80;101782.00;;;;2063786;28;20225;-76
2023/02/28 04:44:40;;;;;;;13.50;10.27;;;;;18.90;101848.00;;;;2063293;28;20251;-76
2023/02/28 04:45:40;;;;;;;16.03;10.07;;;;;18.80;101733.00;;;;2063177;28;20241;-77
2023/02/28 04:46:41;;;;;;;15.83;9.87;;;;;18.80;101736.00;;;;2063858;28;20476;-75
2023/02/28 04:47:41;;;;;;;16.57;10.77;;;;;18.80;101854.00;;;;2063949;28;20238;-76
2023/02/28 04:48:43;;;;;;;16.90;11.50;;;;;18.80;101891.00;;;;2063497;28;20238;-76
2023/02/28 04:49:43;;;;;;;18.77;11.48;;;;;18.80;101858.00;;;;2063891;28;20623;-76
2023/02/28 04:50:44;;;;;;;19.50;12.17;;;;;18.80;101858.00;;;;2063911;28;20242;-76
2023/02/28 04:51:44;;;;;;;17.00;12.00;;;;;18.80;101861.00;;;;2063941;28;20226;-76
2023/02/28 04:52:44;;;;;;;17.67;11.80;;;;;18.80;101860.00;;;;2064062;28;20222;-76
2023/02/28 04:53:45;;;;;;;24.03;13.80;;;;;18.80;101858.00;;;;2064012;28;20238;-76
2023/02/28 04:54:45;;;;;;;18.90;13.40;;;;;18.80;101860.00;;;;2064020;28;20230;-76
2023/02/28 04:55:45;;;;;;;23.47;13.77;;;;;18.80;101856.00;;;;2067470;28;20225;-76
2023/02/28 04:56:48;;;;;;;20.30;13.27;;;;;18.80;101860.00;;;;2070474;28;20241;-76
2023/02/28 04:57:48;;;;;;;22.13;13.68;;;;;18.80;101869.00;;;;2071171;28;20309;-76
2023/02/28 04:58:49;;;;;;;21.23;13.37;;;;;18.80;101852.00;;;;2071941;28;20224;-76
2023/02/28 04:59:49;;;;;;;22.77;13.97;;;;;18.80;101864.00;;;;2071735;28;20585;-76
2023/02/28 05:00:50;;;;;;;23.23;14.90;;;;;18.80;101858.00;;;;2071497;28;20224;-76
2023/02/28 05:01:50;;;;;;;20.40;13.65;;;;;18.80;101861.00;;;;2071102;28;20217;-76
2023/02/28 05:02:51;;;;;;;19.77;13.70;;;;;18.80;101835.00;;;;2070942;28;20244;-75
2023/02/28 05:03:52;;;;;;;19.23;13.87;;;;;18.80;101870.00;;;;2072010;28;20225;-76
2023/02/28 05:04:52;;;;;;;20.52;12.88;;;;;18.80;101860.00;;;;2072022;28;20228;-76
2023/02/28 05:05:53;;;;;;;21.03;13.57;;;;;18.80;101853.00;;;;2061977;28;20253;-76
2023/02/28 05:06:53;;;;;;;19.10;12.67;;;;;18.70;101859.00;;;;2071117;28;20230;-75
2023/02/28 05:07:55;;;;;;;16.97;11.40;;;;;18.80;101878.00;;;;2071223;28;20226;-75
2023/02/28 05:08:56;;;;;;;19.63;12.23;;;;;18.70;101860.00;;;;2071732;28;20583;-75
2023/02/28 05:09:56;;;;;;;19.00;12.60;;;;;18.70;101859.00;;;;2070586;28;20222;-76
2023/02/28 05:10:56;;;;;;;18.43;11.47;;;;;18.80;101862.00;;;;2071880;28;20475;-76
2023/02/28 05:11:57;;;;;;;17.00;12.00;;;;;18.70;101858.00;;;;2071879;28;20202;-76
2023/02/28 05:12:58;;;;;;;16.30;10.87;;;;;18.70;101852.00;;;;2071993;28;20256;-76
2023/02/28 05:13:58;;;;;;;14.17;10.50;;;;;18.70;101864.00;;;;2070820;28;20448;-76
2023/02/28 05:14:58;;;;;;;16.80;10.87;;;;;18.70;101859.00;;;;2071299;28;20229;-75
2023/02/28 05:15:59;;;;;;;13.80;9.10;;;;;18.70;101870.00;;;;2071949;28;20217;-76